createdAt,value
2017-12-03T00:00:57.499Z,101722.60
2017-12-03T00:03:26.609Z,101727.89
2017-12-03T00:05:54.931Z,101719.80
2017-12-03T00:08:23.305Z,101732.52
2017-12-03T00:10:52.338Z,101720.63
2017-12-03T00:13:21.418Z,101714.67
2017-12-03T00:15:49.794Z,101715.69
2017-12-03T00:18:18.115Z,101714.84
2017-12-03T00:20:46.435Z,101715.89
2017-12-03T00:23:14.778Z,101708.45
2017-12-03T00:25:43.095Z,101703.83
2017-12-03T00:28:11.442Z,101707.22
2017-12-03T00:30:39.760Z,101703.69
2017-12-03T00:33:08.112Z,101702.00
2017-12-03T00:35:36.447Z,101698.55
2017-12-03T00:38:04.767Z,101697.88
2017-12-03T00:40:33.115Z,101693.50
2017-12-03T00:43:01.428Z,101691.08
2017-12-03T00:45:30.516Z,101696.57
2017-12-03T00:47:58.883Z,101688.19
2017-12-03T00:50:27.203Z,101688.13
2017-12-03T00:52:55.520Z,101678.66
2017-12-03T00:55:23.882Z,101682.91
2017-12-03T00:57:52.216Z,101689.61
2017-12-03T01:00:20.563Z,101691.41
2017-12-03T01:02:48.888Z,101692.47
2017-12-03T01:05:17.211Z,101687.48
2017-12-03T01:07:45.552Z,101681.95
2017-12-03T01:10:14.645Z,101682.84
2017-12-03T01:12:43.756Z,101680.44
2017-12-03T01:15:12.082Z,101678.11
2017-12-03T01:17:40.456Z,101675.86
2017-12-03T01:20:08.779Z,101671.64
2017-12-03T01:22:37.913Z,101674.37
2017-12-03T01:25:06.295Z,101674.98
2017-12-03T01:27:34.629Z,101670.91
2017-12-03T01:30:03.723Z,101670.27
2017-12-03T01:32:32.091Z,101665.66
2017-12-03T01:35:00.417Z,101654.38
2017-12-03T01:37:28.756Z,101659.72
2017-12-03T01:39:57.871Z,101655.03
2017-12-03T01:42:26.989Z,101657.88
2017-12-03T01:44:55.340Z,101655.45
2017-12-03T01:47:24.454Z,101659.59
2017-12-03T01:49:52.797Z,101656.44
2017-12-03T01:52:21.124Z,101654.72
2017-12-03T01:54:49.455Z,101652.59
2017-12-03T01:57:18.580Z,101652.28
2017-12-03T01:59:46.904Z,101650.27
2017-12-03T02:02:15.228Z,101641.70
2017-12-03T02:04:43.605Z,101641.20
2017-12-03T02:07:11.935Z,101640.67
2017-12-03T02:09:40.279Z,101631.92
2017-12-03T02:12:08.600Z,101631.99
2017-12-03T02:14:36.947Z,101638.54
2017-12-03T02:17:05.300Z,101631.23
2017-12-03T02:19:33.643Z,101633.31
2017-12-03T02:22:01.963Z,101633.36
2017-12-03T02:24:30.330Z,101630.95
2017-12-03T02:26:58.667Z,101626.27
2017-12-03T02:29:26.991Z,101620.36
2017-12-03T02:31:55.343Z,101623.77
2017-12-03T02:34:24.460Z,101617.38
2017-12-03T02:36:52.830Z,101623.27
2017-12-03T02:39:21.917Z,101616.72
2017-12-03T02:41:51.026Z,101610.58
2017-12-03T02:44:20.116Z,101611.07
2017-12-03T02:46:48.475Z,101612.56
2017-12-03T02:49:16.800Z,101605.47
2017-12-03T02:51:45.139Z,101601.33
2017-12-03T02:54:14.251Z,101598.84
2017-12-03T02:56:43.364Z,101589.81
2017-12-03T02:59:11.725Z,101582.16
2017-12-03T03:01:40.073Z,101583.19
2017-12-03T03:04:08.427Z,101585.47
2017-12-03T03:06:37.519Z,101580.38
2017-12-03T03:09:05.855Z,101576.72
2017-12-03T03:11:34.204Z,101570.45
2017-12-03T03:14:02.536Z,101574.16
2017-12-03T03:16:30.889Z,101562.70
2017-12-03T03:18:59.212Z,101562.06
2017-12-03T03:21:27.550Z,101560.96
2017-12-03T03:23:55.876Z,101561.16
2017-12-03T03:26:24.242Z,101562.33
2017-12-03T03:28:52.565Z,101570.44
2017-12-03T03:31:21.714Z,101567.70
2017-12-03T03:33:50.045Z,101566.86
2017-12-03T03:36:19.144Z,101561.95
2017-12-03T03:38:48.264Z,101561.66
2017-12-03T03:41:16.595Z,101564.16
2017-12-03T03:43:44.924Z,101559.44
2017-12-03T03:46:13.267Z,101555.94
2017-12-03T03:48:42.365Z,101552.85
2017-12-03T03:51:11.475Z,101551.25
2017-12-03T03:53:39.799Z,101546.66
2017-12-03T03:56:08.158Z,101541.89
2017-12-03T03:58:36.484Z,101537.45
2017-12-03T04:01:05.573Z,101470.16
2017-12-03T04:03:33.933Z,101539.65
2017-12-03T04:06:02.263Z,101537.97
2017-12-03T04:08:30.583Z,101538.78
2017-12-03T04:10:58.929Z,101536.30
2017-12-03T04:13:27.272Z,101530.09
2017-12-03T04:15:56.395Z,101522.75
2017-12-03T04:18:24.721Z,101526.94
2017-12-03T04:20:53.045Z,101526.45
2017-12-03T04:23:21.441Z,101527.13
2017-12-03T04:25:49.800Z,101529.91
2017-12-03T04:28:18.124Z,101525.80
2017-12-03T04:30:46.455Z,101523.29
2017-12-03T04:33:14.804Z,101522.26
2017-12-03T04:35:43.132Z,101522.10
2017-12-03T04:38:11.464Z,101529.95
2017-12-03T04:40:39.826Z,101531.95
2017-12-03T04:43:08.152Z,101527.19
2017-12-03T04:45:36.481Z,101527.09
2017-12-03T04:48:04.856Z,101520.80
2017-12-03T04:50:33.181Z,101510.77
2017-12-03T04:53:01.529Z,101506.02
2017-12-03T04:55:30.623Z,101513.34
2017-12-03T04:57:59.188Z,101507.30
2017-12-03T05:00:27.526Z,101508.28
2017-12-03T05:02:55.867Z,101502.75
2017-12-03T05:05:24.979Z,101505.81
2017-12-03T05:07:54.091Z,101508.02
2017-12-03T05:10:22.414Z,101504.02
2017-12-03T05:12:50.742Z,101503.16
2017-12-03T05:15:19.091Z,101501.95
2017-12-03T05:17:47.424Z,101499.36
2017-12-03T05:20:15.754Z,101501.19
2017-12-03T05:22:44.860Z,101500.49
2017-12-03T05:25:13.980Z,101490.29
2017-12-03T05:27:42.347Z,101491.48
2017-12-03T05:30:10.685Z,101493.09
2017-12-03T05:32:39.019Z,101493.93
2017-12-03T05:35:07.363Z,101493.41
2017-12-03T05:37:36.444Z,101485.45
2017-12-03T05:40:04.788Z,101482.89
2017-12-03T05:42:33.119Z,101488.91
2017-12-03T05:45:01.481Z,101484.20
2017-12-03T05:47:29.811Z,101480.53
2017-12-03T05:49:58.126Z,101483.42
2017-12-03T05:52:26.465Z,101480.54
2017-12-03T05:54:54.775Z,101474.53
2017-12-03T05:57:23.116Z,101466.84
2017-12-03T05:59:51.460Z,101464.22
2017-12-03T06:02:20.567Z,101465.47
2017-12-03T06:04:48.919Z,101459.74
2017-12-03T06:07:18.012Z,101458.03
2017-12-03T06:09:47.106Z,101455.28
2017-12-03T06:12:15.451Z,101460.80
2017-12-03T06:14:43.771Z,101452.97
2017-12-03T06:17:12.875Z,101450.58
2017-12-03T06:19:41.992Z,101446.73
2017-12-03T06:22:10.332Z,101452.91
2017-12-03T06:24:39.445Z,101449.61
2017-12-03T06:27:08.544Z,101450.81
2017-12-03T06:29:36.900Z,101449.81
2017-12-03T06:32:05.220Z,101450.06
2017-12-03T06:34:33.536Z,101451.67
2017-12-03T06:37:01.929Z,101453.52
2017-12-03T06:39:30.246Z,101455.36
2017-12-03T06:41:58.569Z,101452.80
2017-12-03T06:44:26.914Z,101452.36
2017-12-03T06:46:55.263Z,101453.73
2017-12-03T06:49:24.348Z,101451.05
2017-12-03T06:51:53.441Z,101449.11
2017-12-03T06:54:22.567Z,101445.98
2017-12-03T06:56:50.882Z,101446.43
2017-12-03T06:59:19.196Z,101450.77
2017-12-03T07:01:48.310Z,101449.54
2017-12-03T07:04:16.638Z,101454.67
2017-12-03T07:06:44.952Z,101450.73
2017-12-03T07:09:14.065Z,101447.97
2017-12-03T07:11:42.422Z,101447.22
2017-12-03T07:14:10.740Z,101454.41
2017-12-03T07:16:39.088Z,101449.98
2017-12-03T07:19:07.439Z,101451.36
2017-12-03T07:21:35.759Z,101451.41
2017-12-03T07:24:04.087Z,101444.56
2017-12-03T07:26:32.429Z,101446.91
2017-12-03T07:29:00.751Z,101443.33
2017-12-03T07:31:29.119Z,101454.52
2017-12-03T07:33:57.431Z,101449.45
2017-12-03T07:36:25.758Z,101445.33
2017-12-03T07:38:54.876Z,101455.50
2017-12-03T07:41:23.192Z,101450.02
2017-12-03T07:43:51.512Z,101457.48
2017-12-03T07:46:19.873Z,101458.28
2017-12-03T07:48:48.193Z,101461.08
2017-12-03T07:51:16.580Z,101460.85
2017-12-03T07:53:45.696Z,101459.81
2017-12-03T07:56:14.076Z,101468.06
2017-12-03T07:58:42.410Z,101470.13
2017-12-03T08:01:10.743Z,101465.16
2017-12-03T08:03:39.106Z,101463.13
2017-12-03T08:06:07.440Z,101468.52
2017-12-03T08:08:35.754Z,101466.98
2017-12-03T08:11:04.875Z,101463.62
2017-12-03T08:13:33.260Z,101460.78
2017-12-03T08:16:01.590Z,101468.58
2017-12-03T08:18:30.818Z,101464.22
2017-12-03T08:20:59.139Z,101465.08
2017-12-03T08:23:27.467Z,101460.26
2017-12-03T08:25:55.813Z,101460.03
2017-12-03T08:28:24.159Z,101451.30
2017-12-03T08:30:52.500Z,101450.91
2017-12-03T08:33:20.826Z,101449.09
2017-12-03T08:35:49.168Z,101446.66
2017-12-03T08:38:17.527Z,101444.92
2017-12-03T08:40:45.877Z,101444.95
2017-12-03T08:43:14.201Z,101446.17
2017-12-03T08:45:42.559Z,101439.46
2017-12-03T08:48:11.653Z,101441.03
2017-12-03T08:50:40.743Z,101441.77
2017-12-03T08:53:09.855Z,101433.98
2017-12-03T08:55:38.182Z,101431.89
2017-12-03T08:58:06.512Z,101436.66
2017-12-03T09:00:34.881Z,101437.08
2017-12-03T09:03:03.971Z,101434.03
2017-12-03T09:05:33.063Z,101431.14
2017-12-03T09:08:02.167Z,101434.56
2017-12-03T09:10:31.281Z,101429.11
2017-12-03T09:12:59.607Z,101425.50
2017-12-03T09:15:27.964Z,101429.17
2017-12-03T09:17:56.309Z,101428.70
2017-12-03T09:20:24.640Z,101424.61
2017-12-03T09:22:52.996Z,101431.81
2017-12-03T09:25:21.355Z,101420.57
2017-12-03T09:27:49.726Z,101430.56
2017-12-03T09:30:18.121Z,101421.31
2017-12-03T09:32:46.920Z,101424.08
2017-12-03T09:35:15.318Z,101412.63
2017-12-03T09:37:43.708Z,101412.49
2017-12-03T09:40:12.055Z,101412.22
2017-12-03T09:42:40.370Z,101418.05
2017-12-03T09:45:08.799Z,101410.86
2017-12-03T09:47:37.140Z,101414.15
2017-12-03T09:50:06.310Z,101409.05
2017-12-03T09:52:34.629Z,101406.80
2017-12-03T09:55:02.968Z,101410.45
2017-12-03T09:57:31.327Z,101400.09
2017-12-03T10:00:00.440Z,101411.63
2017-12-03T10:02:29.188Z,101401.10
2017-12-03T10:04:57.539Z,101401.31
2017-12-03T10:07:26.658Z,101393.39
2017-12-03T10:09:55.002Z,101387.19
2017-12-03T10:12:24.924Z,101374.23
2017-12-03T10:14:54.077Z,101375.92
2017-12-03T10:17:22.412Z,101368.09
2017-12-03T10:19:50.736Z,101369.31
2017-12-03T10:22:19.132Z,101363.92
2017-12-03T10:24:47.460Z,101362.13
2017-12-03T10:27:15.799Z,101356.38
2017-12-03T10:29:44.168Z,101349.33
2017-12-03T10:32:12.500Z,101353.67
2017-12-03T10:34:40.957Z,101347.98
2017-12-03T10:37:10.068Z,101342.63
2017-12-03T10:39:38.425Z,101337.55
2017-12-03T10:42:07.506Z,101337.09
2017-12-03T10:44:35.829Z,101338.61
2017-12-03T10:47:04.174Z,101339.25
2017-12-03T10:49:33.260Z,101341.34
2017-12-03T10:52:02.381Z,101334.73
2017-12-03T10:54:30.732Z,101335.51
2017-12-03T10:56:59.052Z,101329.74
2017-12-03T10:59:27.379Z,101329.05
2017-12-03T11:01:55.736Z,101323.68
2017-12-03T11:04:24.063Z,101323.12
2017-12-03T11:06:53.152Z,101315.79
2017-12-03T11:09:22.272Z,101311.49
2017-12-03T11:11:50.625Z,101313.02
2017-12-03T11:14:19.730Z,101306.50
2017-12-03T11:16:48.059Z,101309.83
2017-12-03T11:19:16.388Z,101304.70
2017-12-03T11:21:44.723Z,101306.05
2017-12-03T11:24:13.063Z,101304.10
2017-12-03T11:26:41.376Z,101299.77
2017-12-03T11:29:10.175Z,101289.68
2017-12-03T11:31:38.700Z,101290.48
2017-12-03T11:34:07.028Z,101284.70
2017-12-03T11:36:35.397Z,101280.41
2017-12-03T11:39:04.504Z,101274.86
2017-12-03T11:41:32.833Z,101266.75
2017-12-03T11:44:01.253Z,101269.88
2017-12-03T11:46:29.596Z,101264.20
2017-12-03T11:48:57.969Z,101258.95
2017-12-03T11:51:26.288Z,101256.59
2017-12-03T11:53:54.635Z,101252.06
2017-12-03T11:56:22.983Z,101247.63
2017-12-03T11:58:52.092Z,101242.96
2017-12-03T12:01:21.178Z,101237.23
2017-12-03T12:03:50.301Z,101238.07
2017-12-03T12:06:18.624Z,101223.30
2017-12-03T12:08:46.970Z,101226.02
2017-12-03T12:11:15.316Z,101220.77
2017-12-03T12:13:43.644Z,101229.08
2017-12-03T12:16:11.971Z,101222.79
2017-12-03T12:18:40.327Z,101224.41
2017-12-03T12:21:09.403Z,101224.78
2017-12-03T12:23:37.735Z,101219.42
2017-12-03T12:26:06.080Z,101212.03
2017-12-03T12:28:35.192Z,101217.35
2017-12-03T12:31:03.569Z,101208.77
2017-12-03T12:33:31.896Z,101201.06
2017-12-03T12:36:00.221Z,101196.48
2017-12-03T12:38:28.564Z,101194.73
2017-12-03T12:40:56.887Z,101186.05
2017-12-03T12:43:25.200Z,101190.06
2017-12-03T12:45:53.549Z,101185.04
2017-12-03T12:48:21.876Z,101182.97
2017-12-03T12:50:50.244Z,101174.23
2017-12-03T12:53:18.563Z,101173.83
2017-12-03T12:55:47.642Z,101173.73
2017-12-03T12:58:15.991Z,101172.31
2017-12-03T13:00:44.484Z,101161.92
2017-12-03T13:03:12.804Z,101164.36
2017-12-03T13:05:41.165Z,101154.25
2017-12-03T13:08:10.255Z,101153.80
2017-12-03T13:10:39.603Z,101145.77
2017-12-03T13:13:07.956Z,101143.01
2017-12-03T13:15:36.529Z,101142.23
2017-12-03T13:18:05.635Z,101136.31
2017-12-03T13:20:33.968Z,101132.39
2017-12-03T13:23:02.315Z,101132.16
2017-12-03T13:25:30.653Z,101140.19
2017-12-03T13:27:59.788Z,101141.16
2017-12-03T13:30:28.117Z,101138.81
2017-12-03T13:32:56.452Z,101133.08
2017-12-03T13:35:24.821Z,101133.37
2017-12-03T13:37:53.144Z,101134.87
2017-12-03T13:40:21.465Z,101131.70
2017-12-03T13:42:49.820Z,101129.98
2017-12-03T13:45:18.157Z,101126.95
2017-12-03T13:47:46.527Z,101127.22
2017-12-03T13:50:14.855Z,101119.98
2017-12-03T13:52:43.945Z,101120.91
2017-12-03T13:55:12.340Z,101127.33
2017-12-03T13:57:40.671Z,101118.68
2017-12-03T14:00:08.993Z,101117.73
2017-12-03T14:02:38.115Z,101121.64
2017-12-03T14:05:06.439Z,101126.22
2017-12-03T14:07:34.769Z,101125.94
2017-12-03T14:10:03.124Z,101126.30
2017-12-03T14:12:31.440Z,101127.12
2017-12-03T14:14:59.757Z,101128.37
2017-12-03T14:17:28.109Z,101127.69
2017-12-03T14:19:56.451Z,101121.50
2017-12-03T14:22:24.760Z,101131.38
2017-12-03T14:24:53.120Z,101133.86
2017-12-03T14:27:21.690Z,101134.56
2017-12-03T14:29:50.052Z,101130.77
2017-12-03T14:32:18.391Z,101125.84
2017-12-03T14:34:46.740Z,101134.56
2017-12-03T14:37:15.056Z,101134.23
2017-12-03T14:39:43.385Z,101129.89
2017-12-03T14:42:11.742Z,101129.26
2017-12-03T14:44:40.866Z,101129.03
2017-12-03T14:47:09.201Z,101128.70
2017-12-03T14:49:38.311Z,101124.95
2017-12-03T14:52:06.674Z,101116.41
2017-12-03T14:54:35.758Z,101116.56
2017-12-03T14:57:04.075Z,101115.44
2017-12-03T14:59:32.436Z,101116.39
2017-12-03T15:02:01.515Z,101123.22
2017-12-03T15:04:29.835Z,101116.38
2017-12-03T15:06:58.186Z,101118.05
2017-12-03T15:09:27.263Z,101120.40
2017-12-03T15:11:55.588Z,101112.52
2017-12-03T15:14:24.785Z,101118.73
2017-12-03T15:16:53.169Z,101123.81
2017-12-03T15:19:22.207Z,101118.41
2017-12-03T15:21:50.544Z,101118.20
2017-12-03T15:24:18.883Z,101119.61
2017-12-03T15:26:47.967Z,101119.19
2017-12-03T15:29:17.080Z,101112.77
2017-12-03T15:31:45.410Z,101117.67
2017-12-03T15:34:13.763Z,101116.78
2017-12-03T15:36:42.116Z,101108.16
2017-12-03T15:39:10.913Z,101111.19
2017-12-03T15:41:39.283Z,101112.44
2017-12-03T15:44:07.599Z,101115.28
2017-12-03T15:46:35.935Z,101115.47
2017-12-03T15:49:04.284Z,101109.84
2017-12-03T15:51:32.640Z,101107.94
2017-12-03T15:54:00.963Z,101112.38
2017-12-03T15:56:30.053Z,101112.44
2017-12-03T15:58:59.152Z,101110.36
2017-12-03T16:01:28.245Z,101109.67
2017-12-03T16:03:57.356Z,101115.53
2017-12-03T16:06:25.694Z,101112.05
2017-12-03T16:08:54.037Z,101113.65
2017-12-03T16:11:22.352Z,101108.51
2017-12-03T16:13:50.695Z,101110.95
2017-12-03T16:16:19.013Z,101111.19
2017-12-03T16:18:47.360Z,101107.11
2017-12-03T16:21:15.692Z,101104.69
2017-12-03T16:23:44.769Z,101117.67
2017-12-03T16:26:13.125Z,101116.73
2017-12-03T16:28:41.451Z,101115.41
2017-12-03T16:31:09.775Z,101119.34
2017-12-03T16:33:38.128Z,101104.29
2017-12-03T16:36:06.447Z,101119.09
2017-12-03T16:38:34.836Z,101121.45
2017-12-03T16:41:03.164Z,101129.40
2017-12-03T16:43:31.495Z,101135.00
2017-12-03T16:45:59.911Z,101140.03
2017-12-03T16:48:28.263Z,101138.86
2017-12-03T16:50:57.352Z,101139.52
2017-12-03T16:53:26.439Z,101144.06
2017-12-03T16:55:54.800Z,101140.03
2017-12-03T16:58:23.139Z,101138.52
2017-12-03T17:00:52.042Z,101137.69
2017-12-03T17:03:20.374Z,101140.52
2017-12-03T17:05:49.459Z,101139.20
2017-12-03T17:08:17.795Z,101139.94
2017-12-03T17:10:46.127Z,101137.53
2017-12-03T17:13:15.291Z,101136.78
2017-12-03T17:15:43.608Z,101141.37
2017-12-03T17:18:12.689Z,101135.27
2017-12-03T17:20:41.835Z,101134.59
2017-12-03T17:23:10.147Z,101137.94
2017-12-03T17:25:38.476Z,101136.17
2017-12-03T17:28:06.814Z,101140.87
2017-12-03T17:30:35.167Z,101133.83
2017-12-03T17:33:03.519Z,101137.68
2017-12-03T17:35:31.851Z,101146.30
2017-12-03T17:38:00.179Z,101146.64
2017-12-03T17:40:28.541Z,101138.19
2017-12-03T17:42:56.860Z,101137.02
2017-12-03T17:45:25.183Z,101132.63
2017-12-03T17:47:54.295Z,101136.42
2017-12-03T17:50:22.612Z,101139.75
2017-12-03T17:52:50.960Z,101143.13
2017-12-03T17:55:19.287Z,101142.37
2017-12-03T17:57:47.608Z,101138.77
2017-12-03T18:00:15.952Z,101136.94
2017-12-03T18:02:45.039Z,101146.48
2017-12-03T18:05:13.396Z,101145.81
2017-12-03T18:07:41.725Z,101143.45
2017-12-03T18:10:10.065Z,101145.48
2017-12-03T18:12:38.431Z,101153.00
2017-12-03T18:15:06.777Z,101148.81
2017-12-03T18:17:35.099Z,101149.07
2017-12-03T18:20:03.501Z,101151.67
2017-12-03T18:22:31.796Z,101146.10
2017-12-03T18:25:00.120Z,101143.55
2017-12-03T18:27:28.477Z,101150.14
2017-12-03T18:29:56.791Z,101146.39
2017-12-03T18:32:25.131Z,101155.52
2017-12-03T18:34:53.450Z,101150.24
2017-12-03T18:37:21.802Z,101156.36
2017-12-03T18:39:50.127Z,101157.10
2017-12-03T18:42:19.237Z,101155.52
2017-12-03T18:44:47.571Z,101153.34
2017-12-03T18:47:15.895Z,101150.16
2017-12-03T18:49:44.262Z,101150.73
2017-12-03T18:52:12.624Z,101155.84
2017-12-03T18:54:41.714Z,101150.33
2017-12-03T18:57:10.809Z,101156.19
2017-12-03T18:59:39.184Z,101157.69
2017-12-03T19:02:08.284Z,101164.30
2017-12-03T19:04:37.379Z,101157.84
2017-12-03T19:07:05.710Z,101159.53
2017-12-03T19:09:34.033Z,101158.41
2017-12-03T19:12:02.384Z,101159.86
2017-12-03T19:14:30.706Z,101164.55
2017-12-03T19:16:59.797Z,101155.07
2017-12-03T19:19:28.931Z,101149.13
2017-12-03T19:21:57.248Z,101141.25
2017-12-03T19:24:25.588Z,101145.45
2017-12-03T19:26:53.907Z,101138.83
2017-12-03T19:29:22.260Z,101141.84
2017-12-03T19:31:50.587Z,101140.77
2017-12-03T19:34:18.907Z,101137.41
2017-12-03T19:36:47.246Z,101135.48
2017-12-03T19:39:15.604Z,101135.55
2017-12-03T19:41:43.932Z,101138.24
2017-12-03T19:44:12.268Z,101136.98
2017-12-03T19:46:41.379Z,101139.38
2017-12-03T19:49:09.711Z,101146.27
2017-12-03T19:51:38.065Z,101151.55
2017-12-03T19:54:06.416Z,101157.83
2017-12-03T19:56:34.765Z,101159.94
2017-12-03T19:59:03.887Z,101163.55
2017-12-03T20:01:32.216Z,101162.88
2017-12-03T20:04:00.559Z,101161.63
2017-12-03T20:06:28.899Z,101158.77
2017-12-03T20:08:58.002Z,101161.36
2017-12-03T20:11:27.096Z,101166.64
2017-12-03T20:13:56.196Z,101164.19
2017-12-03T20:16:25.281Z,101161.45
2017-12-03T20:18:54.396Z,101164.72
2017-12-03T20:21:22.724Z,101160.45
2017-12-03T20:23:51.039Z,101161.45
2017-12-03T20:26:20.161Z,101161.61
2017-12-03T20:28:48.515Z,101158.41
2017-12-03T20:31:17.624Z,101153.30
2017-12-03T20:33:45.949Z,101156.33
2017-12-03T20:36:14.354Z,101160.19
2017-12-03T20:38:43.465Z,101160.60
2017-12-03T20:41:12.548Z,101159.75
2017-12-03T20:43:41.668Z,101158.50
2017-12-03T20:46:10.005Z,101155.82
2017-12-03T20:48:38.369Z,101150.85
2017-12-03T20:51:07.459Z,101148.70
2017-12-03T20:53:36.544Z,101151.05
2017-12-03T20:56:04.888Z,101147.34
2017-12-03T20:58:33.974Z,101151.78
2017-12-03T21:01:03.099Z,101152.29
2017-12-03T21:03:31.429Z,101152.88
2017-12-03T21:06:00.533Z,101146.67
2017-12-03T21:08:29.680Z,101154.30
2017-12-03T21:10:58.003Z,101144.66
2017-12-03T21:13:26.335Z,101135.70
2017-12-03T21:15:54.675Z,101146.25
2017-12-03T21:18:23.813Z,101141.72
2017-12-03T21:20:52.875Z,101145.41
2017-12-03T21:23:21.987Z,101140.48
2017-12-03T21:25:50.339Z,101145.85
2017-12-03T21:28:19.456Z,101152.90
2017-12-03T21:30:47.768Z,101148.53
2017-12-03T21:33:16.116Z,101150.88
2017-12-03T21:35:44.431Z,101162.27
2017-12-03T21:38:12.767Z,101161.91
2017-12-03T21:40:41.112Z,101159.09
2017-12-03T21:43:10.198Z,101155.98
2017-12-03T21:45:38.557Z,101149.84
2017-12-03T21:48:06.967Z,101144.99
2017-12-03T21:50:35.306Z,101158.22
2017-12-03T21:53:03.623Z,101160.95
2017-12-03T21:55:32.755Z,101166.68
2017-12-03T21:58:01.108Z,101162.66
2017-12-03T22:00:30.217Z,101172.31
2017-12-03T22:02:58.549Z,101166.51
2017-12-03T22:05:26.909Z,101173.55
2017-12-03T22:07:55.234Z,101173.22
2017-12-03T22:10:24.359Z,101182.27
2017-12-03T22:12:52.676Z,101177.48
2017-12-03T22:15:21.012Z,101171.65
2017-12-03T22:17:49.351Z,101179.19
2017-12-03T22:20:17.672Z,101180.00
2017-12-03T22:22:46.036Z,101173.80
2017-12-03T22:25:14.384Z,101185.80
2017-12-03T22:27:42.731Z,101177.66
2017-12-03T22:30:11.068Z,101172.71
2017-12-03T22:32:39.460Z,101173.91
2017-12-03T22:35:07.816Z,101166.77
2017-12-03T22:37:36.895Z,101179.92
2017-12-03T22:40:06.724Z,101179.52
2017-12-03T22:42:35.859Z,101183.80
2017-12-03T22:45:04.197Z,101186.14
2017-12-03T22:47:33.294Z,101186.63
2017-12-03T22:50:02.395Z,101180.17
2017-12-03T22:52:30.744Z,101187.64
2017-12-03T22:54:59.064Z,101185.12
2017-12-03T22:57:27.380Z,101187.64
2017-12-03T22:59:55.730Z,101176.97
2017-12-03T23:02:24.063Z,101182.70
2017-12-03T23:04:53.142Z,101181.59
2017-12-03T23:07:21.487Z,101179.39
2017-12-03T23:09:49.836Z,101177.91
2017-12-03T23:12:18.152Z,101180.84
2017-12-03T23:14:46.471Z,101179.75
2017-12-03T23:17:15.633Z,101171.02
2017-12-03T23:19:43.948Z,101161.12
2017-12-03T23:22:13.032Z,101165.33
2017-12-03T23:24:41.403Z,101162.63
2017-12-03T23:27:09.711Z,101159.54
2017-12-03T23:29:38.843Z,101162.14
2017-12-03T23:32:07.163Z,101164.14
2017-12-03T23:34:35.503Z,101160.80
2017-12-03T23:37:03.848Z,101165.05
2017-12-03T23:39:32.216Z,101164.30
2017-12-03T23:42:01.327Z,101155.98
2017-12-03T23:44:29.683Z,101159.84
2017-12-03T23:46:58.781Z,101159.08
2017-12-03T23:49:27.895Z,101163.11
2017-12-03T23:51:56.236Z,101162.09
2017-12-03T23:54:24.551Z,101166.27
2017-12-03T23:56:52.898Z,101165.53
2017-12-03T23:59:21.247Z,101160.39
